sensor_id;sensor_type;location;lat;lon;timestamp;P1;durP1;ratioP1;P2;durP2;ratioP2
57307;SDS011;43152;50.968;18.214;2024-02-14T00:01:08;40.60;;;17.40;;
57307;SDS011;43152;50.968;18.214;2024-02-14T00:10:51;43.40;;;16.00;;
57307;SDS011;43152;50.968;18.214;2024-02-14T00:20:34;36.40;;;17.10;;
57307;SDS011;43152;50.968;18.214;2024-02-14T00:30:19;51.80;;;21.20;;
57307;SDS011;43152;50.968;18.214;2024-02-14T00:40:03;61.50;;;24.00;;
57307;SDS011;43152;50.968;18.214;2024-02-14T00:49:47;48.40;;;22.90;;
57307;SDS011;43152;50.968;18.214;2024-02-14T00:59:30;36.20;;;18.80;;
57307;SDS011;43152;50.968;18.214;2024-02-14T01:09:14;40.30;;;19.80;;
57307;SDS011;43152;50.968;18.214;2024-02-14T01:18:56;38.90;;;16.60;;
57307;SDS011;43152;50.968;18.214;2024-02-14T01:28:38;40.50;;;14.40;;
57307;SDS011;43152;50.968;18.214;2024-02-14T01:38:21;37.20;;;15.80;;
57307;SDS011;43152;50.968;18.214;2024-02-14T01:48:05;40.30;;;18.40;;
57307;SDS011;43152;50.968;18.214;2024-02-14T01:57:49;34.30;;;14.90;;
57307;SDS011;43152;50.968;18.214;2024-02-14T02:07:35;38.20;;;13.80;;
57307;SDS011;43152;50.968;18.214;2024-02-14T02:17:22;28.50;;;13.40;;
57307;SDS011;43152;50.968;18.214;2024-02-14T02:27:05;30.60;;;13.20;;
57307;SDS011;43152;50.968;18.214;2024-02-14T02:36:48;27.80;;;6.90;;
57307;SDS011;43152;50.968;18.214;2024-02-14T02:46:33;32.50;;;15.50;;
57307;SDS011;43152;50.968;18.214;2024-02-14T02:56:17;31.90;;;16.00;;
57307;SDS011;43152;50.968;18.214;2024-02-14T03:06:03;32.60;;;14.10;;
57307;SDS011;43152;50.968;18.214;2024-02-14T03:15:53;39.10;;;12.60;;
57307;SDS011;43152;50.968;18.214;2024-02-14T03:25:40;23.20;;;10.70;;
57307;SDS011;43152;50.968;18.214;2024-02-14T03:35:30;34.60;;;13.90;;
57307;SDS011;43152;50.968;18.214;2024-02-14T03:45:13;38.50;;;12.70;;
57307;SDS011;43152;50.968;18.214;2024-02-14T03:54:59;33.30;;;13.30;;
57307;SDS011;43152;50.968;18.214;2024-02-14T04:04:50;25.60;;;12.10;;
57307;SDS011;43152;50.968;18.214;2024-02-14T04:14:33;39.80;;;12.60;;
57307;SDS011;43152;50.968;18.214;2024-02-14T04:24:15;35.00;;;14.20;;
57307;SDS011;43152;50.968;18.214;2024-02-14T04:33:58;19.60;;;9.10;;
57307;SDS011;43152;50.968;18.214;2024-02-14T04:43:41;34.40;;;13.50;;
57307;SDS011;43152;50.968;18.214;2024-02-14T04:53:25;25.20;;;12.20;;
57307;SDS011;43152;50.968;18.214;2024-02-14T05:03:07;40.30;;;15.00;;
57307;SDS011;43152;50.968;18.214;2024-02-14T05:12:54;35.80;;;14.90;;
57307;SDS011;43152;50.968;18.214;2024-02-14T05:22:37;36.50;;;13.10;;
57307;SDS011;43152;50.968;18.214;2024-02-14T05:32:21;50.00;;;15.80;;
57307;SDS011;43152;50.968;18.214;2024-02-14T05:42:04;46.70;;;17.00;;
57307;SDS011;43152;50.968;18.214;2024-02-14T05:51:47;61.80;;;20.20;;
57307;SDS011;43152;50.968;18.214;2024-02-14T06:01:29;94.40;;;33.80;;
57307;SDS011;43152;50.968;18.214;2024-02-14T06:11:12;75.60;;;31.40;;
57307;SDS011;43152;50.968;18.214;2024-02-14T06:20:56;115.80;;;47.70;;
57307;SDS011;43152;50.968;18.214;2024-02-14T06:30:38;93.10;;;42.50;;
57307;SDS011;43152;50.968;18.214;2024-02-14T06:40:21;94.50;;;35.50;;
57307;SDS011;43152;50.968;18.214;2024-02-14T06:50:08;57.40;;;28.10;;
57307;SDS011;43152;50.968;18.214;2024-02-14T06:59:51;85.20;;;37.80;;
57307;SDS011;43152;50.968;18.214;2024-02-14T07:09:33;98.80;;;30.60;;
57307;SDS011;43152;50.968;18.214;2024-02-14T07:19:17;84.60;;;29.80;;
57307;SDS011;43152;50.968;18.214;2024-02-14T07:49:17;52.20;;;22.10;;
57307;SDS011;43152;50.968;18.214;2024-02-14T07:58:59;46.40;;;21.20;;
57307;SDS011;43152;50.968;18.214;2024-02-14T08:08:41;50.00;;;23.30;;
57307;SDS011;43152;50.968;18.214;2024-02-14T08:18:25;44.90;;;18.40;;
57307;SDS011;43152;50.968;18.214;2024-02-14T08:28:11;45.70;;;18.80;;
57307;SDS011;43152;50.968;18.214;2024-02-14T08:37:54;42.80;;;19.10;;
57307;SDS011;43152;50.968;18.214;2024-02-14T08:47:37;45.90;;;16.70;;
57307;SDS011;43152;50.968;18.214;2024-02-14T08:57:21;48.80;;;21.40;;
57307;SDS011;43152;50.968;18.214;2024-02-14T09:07:06;39.70;;;20.20;;
57307;SDS011;43152;50.968;18.214;2024-02-14T09:24:10;42.10;;;17.00;;
57307;SDS011;43152;50.968;18.214;2024-02-14T09:33:54;27.40;;;12.20;;
57307;SDS011;43152;50.968;18.214;2024-02-14T09:43:44;20.90;;;10.30;;
57307;SDS011;43152;50.968;18.214;2024-02-14T09:53:33;22.10;;;11.40;;
57307;SDS011;43152;50.968;18.214;2024-02-14T10:03:16;21.10;;;9.40;;
57307;SDS011;43152;50.968;18.214;2024-02-14T10:13:06;26.30;;;8.80;;
57307;SDS011;43152;50.968;18.214;2024-02-14T10:22:51;26.90;;;8.80;;
57307;SDS011;43152;50.968;18.214;2024-02-14T10:32:39;18.60;;;9.30;;
57307;SDS011;43152;50.968;18.214;2024-02-14T10:42:32;17.30;;;7.90;;
57307;SDS011;43152;50.968;18.214;2024-02-14T10:52:17;25.60;;;12.10;;
57307;SDS011;43152;50.968;18.214;2024-02-14T11:02:06;31.50;;;12.40;;
57307;SDS011;43152;50.968;18.214;2024-02-14T11:12:02;18.80;;;7.60;;
57307;SDS011;43152;50.968;18.214;2024-02-14T11:21:55;17.00;;;7.10;;
57307;SDS011;43152;50.968;18.214;2024-02-14T11:31:41;14.40;;;6.60;;
57307;SDS011;43152;50.968;18.214;2024-02-14T11:41:33;21.80;;;11.10;;
57307;SDS011;43152;50.968;18.214;2024-02-14T11:46:34;20.40;;;10.60;;
57307;SDS011;43152;50.968;18.214;2024-02-14T11:56:20;13.40;;;4.20;;
57307;SDS011;43152;50.968;18.214;2024-02-14T12:06:09;4.10;;;1.80;;
57307;SDS011;43152;50.968;18.214;2024-02-14T12:15:52;10.80;;;5.20;;
57307;SDS011;43152;50.968;18.214;2024-02-14T12:25:47;15.90;;;5.30;;
57307;SDS011;43152;50.968;18.214;2024-02-14T12:35:40;14.50;;;4.80;;
57307;SDS011;43152;50.968;18.214;2024-02-14T12:45:27;15.90;;;7.00;;
57307;SDS011;43152;50.968;18.214;2024-02-14T12:55:11;12.60;;;3.70;;
57307;SDS011;43152;50.968;18.214;2024-02-14T13:04:59;15.00;;;5.80;;
57307;SDS011;43152;50.968;18.214;2024-02-14T13:14:43;7.60;;;2.50;;
57307;SDS011;43152;50.968;18.214;2024-02-14T13:24:27;5.80;;;1.50;;
57307;SDS011;43152;50.968;18.214;2024-02-14T13:34:10;6.90;;;2.30;;
57307;SDS011;43152;50.968;18.214;2024-02-14T13:43:53;14.40;;;5.30;;
57307;SDS011;43152;50.968;18.214;2024-02-14T13:53:36;8.00;;;3.50;;
57307;SDS011;43152;50.968;18.214;2024-02-14T14:03:18;12.20;;;3.10;;
57307;SDS011;43152;50.968;18.214;2024-02-14T14:13:01;13.60;;;3.60;;
57307;SDS011;43152;50.968;18.214;2024-02-14T14:22:45;13.50;;;4.30;;
57307;SDS011;43152;50.968;18.214;2024-02-14T14:32:29;12.50;;;3.70;;
57307;SDS011;43152;50.968;18.214;2024-02-14T14:42:13;11.20;;;5.20;;
57307;SDS011;43152;50.968;18.214;2024-02-14T14:52:43;19.70;;;6.80;;
57307;SDS011;43152;50.968;18.214;2024-02-14T15:02:35;16.60;;;6.90;;
57307;SDS011;43152;50.968;18.214;2024-02-14T15:12:20;27.50;;;11.50;;
57307;SDS011;43152;50.968;18.214;2024-02-14T15:22:07;25.40;;;9.10;;
57307;SDS011;43152;50.968;18.214;2024-02-14T15:32:11;23.60;;;7.40;;
57307;SDS011;43152;50.968;18.214;2024-02-14T15:42:12;42.30;;;22.40;;
57307;SDS011;43152;50.968;18.214;2024-02-14T15:51:54;33.00;;;14.10;;
57307;SDS011;43152;50.968;18.214;2024-02-14T16:01:41;54.70;;;18.50;;
57307;SDS011;43152;50.968;18.214;2024-02-14T16:11:28;73.00;;;25.70;;
57307;SDS011;43152;50.968;18.214;2024-02-14T16:21:11;36.40;;;14.80;;
57307;SDS011;43152;50.968;18.214;2024-02-14T16:30:55;22.80;;;12.30;;
57307;SDS011;43152;50.968;18.214;2024-02-14T16:40:37;24.50;;;9.30;;
57307;SDS011;43152;50.968;18.214;2024-02-14T16:50:22;35.00;;;13.70;;
57307;SDS011;43152;50.968;18.214;2024-02-14T17:00:05;25.30;;;11.50;;
57307;SDS011;43152;50.968;18.214;2024-02-14T17:09:51;11.70;;;4.00;;
57307;SDS011;43152;50.968;18.214;2024-02-14T17:19:34;24.70;;;9.00;;
57307;SDS011;43152;50.968;18.214;2024-02-14T17:29:17;26.50;;;13.00;;
57307;SDS011;43152;50.968;18.214;2024-02-14T17:39:01;21.50;;;8.50;;
57307;SDS011;43152;50.968;18.214;2024-02-14T17:48:52;23.70;;;10.70;;
57307;SDS011;43152;50.968;18.214;2024-02-14T18:11:02;10.40;;;4.20;;
57307;SDS011;43152;50.968;18.214;2024-02-14T18:18:20;28.00;;;12.30;;
57307;SDS011;43152;50.968;18.214;2024-02-14T18:28:02;23.60;;;10.90;;
57307;SDS011;43152;50.968;18.214;2024-02-14T18:37:45;20.70;;;8.60;;
57307;SDS011;43152;50.968;18.214;2024-02-14T18:47:29;19.90;;;6.90;;
57307;SDS011;43152;50.968;18.214;2024-02-14T18:57:14;86.10;;;37.90;;
57307;SDS011;43152;50.968;18.214;2024-02-14T19:06:58;43.80;;;23.50;;
57307;SDS011;43152;50.968;18.214;2024-02-14T19:16:40;31.90;;;12.60;;
57307;SDS011;43152;50.968;18.214;2024-02-14T19:26:23;32.90;;;9.50;;
57307;SDS011;43152;50.968;18.214;2024-02-14T19:36:07;38.50;;;13.80;;
57307;SDS011;43152;50.968;18.214;2024-02-14T19:45:50;20.70;;;8.20;;
57307;SDS011;43152;50.968;18.214;2024-02-14T19:55:34;29.20;;;11.00;;
57307;SDS011;43152;50.968;18.214;2024-02-14T20:05:19;24.80;;;9.60;;
57307;SDS011;43152;50.968;18.214;2024-02-14T20:15:06;16.50;;;7.30;;
57307;SDS011;43152;50.968;18.214;2024-02-14T20:24:58;20.70;;;7.90;;
57307;SDS011;43152;50.968;18.214;2024-02-14T20:34:45;14.60;;;6.00;;
57307;SDS011;43152;50.968;18.214;2024-02-14T20:44:29;15.50;;;6.50;;
57307;SDS011;43152;50.968;18.214;2024-02-14T20:54:12;26.60;;;9.90;;
57307;SDS011;43152;50.968;18.214;2024-02-14T21:03:57;27.40;;;12.20;;
57307;SDS011;43152;50.968;18.214;2024-02-14T21:13:40;25.30;;;10.60;;
57307;SDS011;43152;50.968;18.214;2024-02-14T21:23:22;37.00;;;13.20;;
57307;SDS011;43152;50.968;18.214;2024-02-14T21:33:05;35.50;;;15.00;;
57307;SDS011;43152;50.968;18.214;2024-02-14T21:42:50;33.70;;;14.70;;
57307;SDS011;43152;50.968;18.214;2024-02-14T21:52:33;41.40;;;14.20;;
57307;SDS011;43152;50.968;18.214;2024-02-14T22:02:17;59.70;;;16.90;;
57307;SDS011;43152;50.968;18.214;2024-02-14T22:12:00;23.60;;;7.70;;
57307;SDS011;43152;50.968;18.214;2024-02-14T22:21:45;29.10;;;11.50;;
57307;SDS011;43152;50.968;18.214;2024-02-14T22:31:28;23.50;;;10.50;;
57307;SDS011;43152;50.968;18.214;2024-02-14T22:41:12;29.60;;;10.80;;
57307;SDS011;43152;50.968;18.214;2024-02-14T22:50:56;22.80;;;9.40;;
57307;SDS011;43152;50.968;18.214;2024-02-14T23:00:39;20.30;;;7.80;;
57307;SDS011;43152;50.968;18.214;2024-02-14T23:22:15;33.20;;;14.10;;
57307;SDS011;43152;50.968;18.214;2024-02-14T23:31:58;21.10;;;9.10;;
57307;SDS011;43152;50.968;18.214;2024-02-14T23:41:41;25.20;;;9.30;;
